sensor_id;sensor_type;location;lat;lon;timestamp;P1;durP1;ratioP1;P2;durP2;ratioP2
58878;SDS011;44660;42.664;23.266;2022-07-06T00:01:22;21.55;;;18.02;;
58878;SDS011;44660;42.664;23.266;2022-07-06T00:03:47;17.05;;;11.65;;
58878;SDS011;44660;42.664;23.266;2022-07-06T00:06:13;12.85;;;10.85;;
58878;SDS011;44660;42.664;23.266;2022-07-06T00:08:38;12.63;;;10.43;;
58878;SDS011;44660;42.664;23.266;2022-07-06T00:11:04;15.55;;;11.27;;
58878;SDS011;44660;42.664;23.266;2022-07-06T00:13:30;16.85;;;11.95;;
58878;SDS011;44660;42.664;23.266;2022-07-06T00:15:56;15.50;;;11.40;;
58878;SDS011;44660;42.664;23.266;2022-07-06T00:18:22;14.52;;;10.98;;
58878;SDS011;44660;42.664;23.266;2022-07-06T00:20:47;13.38;;;10.73;;
58878;SDS011;44660;42.664;23.266;2022-07-06T00:23:13;13.27;;;10.43;;
58878;SDS011;44660;42.664;23.266;2022-07-06T00:25:38;13.02;;;9.43;;
58878;SDS011;44660;42.664;23.266;2022-07-06T00:28:04;11.02;;;9.93;;
58878;SDS011;44660;42.664;23.266;2022-07-06T00:30:30;11.68;;;9.77;;
58878;SDS011;44660;42.664;23.266;2022-07-06T00:32:55;12.82;;;9.68;;
58878;SDS011;44660;42.664;23.266;2022-07-06T00:35:23;10.32;;;8.80;;
58878;SDS011;44660;42.664;23.266;2022-07-06T00:37:49;10.43;;;9.27;;
58878;SDS011;44660;42.664;23.266;2022-07-06T00:40:14;11.80;;;9.63;;
58878;SDS011;44660;42.664;23.266;2022-07-06T00:42:43;12.25;;;10.55;;
58878;SDS011;44660;42.664;23.266;2022-07-06T00:45:10;12.48;;;10.57;;
58878;SDS011;44660;42.664;23.266;2022-07-06T00:47:37;13.13;;;9.63;;
58878;SDS011;44660;42.664;23.266;2022-07-06T00:50:03;10.18;;;9.07;;
58878;SDS011;44660;42.664;23.266;2022-07-06T00:52:39;11.50;;;9.27;;
58878;SDS011;44660;42.664;23.266;2022-07-06T00:55:08;11.05;;;8.85;;
58878;SDS011;44660;42.664;23.266;2022-07-06T00:57:34;12.93;;;8.98;;
58878;SDS011;44660;42.664;23.266;2022-07-06T01:00:01;14.20;;;10.30;;
58878;SDS011;44660;42.664;23.266;2022-07-06T01:02:31;12.57;;;10.10;;
58878;SDS011;44660;42.664;23.266;2022-07-06T01:07:23;14.00;;;10.30;;
58878;SDS011;44660;42.664;23.266;2022-07-06T01:09:49;13.85;;;10.95;;
58878;SDS011;44660;42.664;23.266;2022-07-06T01:12:15;15.88;;;11.63;;
58878;SDS011;44660;42.664;23.266;2022-07-06T01:14:41;14.60;;;11.63;;
58878;SDS011;44660;42.664;23.266;2022-07-06T01:17:07;14.20;;;12.25;;
58878;SDS011;44660;42.664;23.266;2022-07-06T01:19:33;16.65;;;12.65;;
58878;SDS011;44660;42.664;23.266;2022-07-06T01:21:59;16.20;;;11.40;;
58878;SDS011;44660;42.664;23.266;2022-07-06T01:24:24;14.50;;;11.65;;
58878;SDS011;44660;42.664;23.266;2022-07-06T01:26:50;15.02;;;11.38;;
58878;SDS011;44660;42.664;23.266;2022-07-06T01:29:16;17.27;;;12.40;;
58878;SDS011;44660;42.664;23.266;2022-07-06T01:31:46;15.20;;;11.30;;
58878;SDS011;44660;42.664;23.266;2022-07-06T01:34:18;17.48;;;10.90;;
58878;SDS011;44660;42.664;23.266;2022-07-06T01:39:10;13.40;;;10.30;;
58878;SDS011;44660;42.664;23.266;2022-07-06T01:41:36;16.58;;;10.38;;
58878;SDS011;44660;42.664;23.266;2022-07-06T01:44:02;12.18;;;10.18;;
58878;SDS011;44660;42.664;23.266;2022-07-06T01:46:28;11.75;;;10.20;;
58878;SDS011;44660;42.664;23.266;2022-07-06T01:48:54;11.27;;;10.07;;
58878;SDS011;44660;42.664;23.266;2022-07-06T01:51:19;12.57;;;9.88;;
58878;SDS011;44660;42.664;23.266;2022-07-06T01:53:45;14.32;;;9.93;;
58878;SDS011;44660;42.664;23.266;2022-07-06T01:56:11;12.95;;;10.60;;
58878;SDS011;44660;42.664;23.266;2022-07-06T01:58:37;12.57;;;10.80;;
58878;SDS011;44660;42.664;23.266;2022-07-06T02:01:07;15.02;;;10.75;;
58878;SDS011;44660;42.664;23.266;2022-07-06T02:03:34;13.77;;;10.70;;
58878;SDS011;44660;42.664;23.266;2022-07-06T02:05:59;15.52;;;10.73;;
58878;SDS011;44660;42.664;23.266;2022-07-06T02:08:25;11.60;;;10.40;;
58878;SDS011;44660;42.664;23.266;2022-07-06T02:10:51;15.98;;;11.20;;
58878;SDS011;44660;42.664;23.266;2022-07-06T02:13:16;14.13;;;10.10;;
58878;SDS011;44660;42.664;23.266;2022-07-06T02:15:42;12.95;;;10.00;;
58878;SDS011;44660;42.664;23.266;2022-07-06T02:18:07;12.05;;;10.45;;
58878;SDS011;44660;42.664;23.266;2022-07-06T02:20:33;13.82;;;10.45;;
58878;SDS011;44660;42.664;23.266;2022-07-06T02:22:58;15.02;;;11.18;;
58878;SDS011;44660;42.664;23.266;2022-07-06T02:25:24;16.33;;;10.98;;
58878;SDS011;44660;42.664;23.266;2022-07-06T02:27:49;13.05;;;10.77;;
58878;SDS011;44660;42.664;23.266;2022-07-06T02:30:14;15.82;;;11.48;;
58878;SDS011;44660;42.664;23.266;2022-07-06T02:32:40;14.55;;;10.70;;
58878;SDS011;44660;42.664;23.266;2022-07-06T02:35:05;12.27;;;10.88;;
58878;SDS011;44660;42.664;23.266;2022-07-06T02:37:31;12.57;;;11.27;;
58878;SDS011;44660;42.664;23.266;2022-07-06T02:39:57;13.70;;;11.00;;
58878;SDS011;44660;42.664;23.266;2022-07-06T02:42:22;14.88;;;11.65;;
58878;SDS011;44660;42.664;23.266;2022-07-06T02:44:47;13.65;;;10.82;;
58878;SDS011;44660;42.664;23.266;2022-07-06T02:47:13;14.80;;;11.57;;
58878;SDS011;44660;42.664;23.266;2022-07-06T02:49:38;11.45;;;10.25;;
58878;SDS011;44660;42.664;23.266;2022-07-06T02:52:04;14.27;;;10.77;;
58878;SDS011;44660;42.664;23.266;2022-07-06T02:54:29;14.50;;;11.90;;
58878;SDS011;44660;42.664;23.266;2022-07-06T02:56:54;16.58;;;11.50;;
58878;SDS011;44660;42.664;23.266;2022-07-06T02:59:20;15.43;;;10.85;;
58878;SDS011;44660;42.664;23.266;2022-07-06T03:01:45;13.10;;;10.82;;
58878;SDS011;44660;42.664;23.266;2022-07-06T03:04:11;15.15;;;10.40;;
58878;SDS011;44660;42.664;23.266;2022-07-06T03:06:36;12.52;;;10.35;;
58878;SDS011;44660;42.664;23.266;2022-07-06T03:09:02;11.30;;;10.07;;
58878;SDS011;44660;42.664;23.266;2022-07-06T03:11:28;13.77;;;10.27;;
58878;SDS011;44660;42.664;23.266;2022-07-06T03:13:53;15.32;;;11.70;;
58878;SDS011;44660;42.664;23.266;2022-07-06T03:16:19;15.77;;;10.98;;
58878;SDS011;44660;42.664;23.266;2022-07-06T03:18:44;12.82;;;11.07;;
58878;SDS011;44660;42.664;23.266;2022-07-06T03:21:09;15.13;;;10.63;;
58878;SDS011;44660;42.664;23.266;2022-07-06T03:23:35;13.35;;;9.88;;
58878;SDS011;44660;42.664;23.266;2022-07-06T03:26:00;13.85;;;8.75;;
58878;SDS011;44660;42.664;23.266;2022-07-06T03:28:26;8.63;;;7.25;;
58878;SDS011;44660;42.664;23.266;2022-07-06T03:30:51;8.45;;;6.95;;
58878;SDS011;44660;42.664;23.266;2022-07-06T03:33:16;10.75;;;7.13;;
58878;SDS011;44660;42.664;23.266;2022-07-06T03:35:42;9.80;;;7.55;;
58878;SDS011;44660;42.664;23.266;2022-07-06T03:38:07;11.38;;;7.85;;
58878;SDS011;44660;42.664;23.266;2022-07-06T03:40:33;9.73;;;7.80;;
58878;SDS011;44660;42.664;23.266;2022-07-06T03:42:59;8.27;;;7.45;;
58878;SDS011;44660;42.664;23.266;2022-07-06T03:45:24;9.40;;;6.85;;
58878;SDS011;44660;42.664;23.266;2022-07-06T03:47:50;11.27;;;8.02;;
58878;SDS011;44660;42.664;23.266;2022-07-06T03:50:15;10.48;;;8.00;;
58878;SDS011;44660;42.664;23.266;2022-07-06T03:52:41;9.88;;;7.50;;
58878;SDS011;44660;42.664;23.266;2022-07-06T03:55:07;11.27;;;7.50;;
58878;SDS011;44660;42.664;23.266;2022-07-06T03:57:37;9.43;;;7.68;;
58878;SDS011;44660;42.664;23.266;2022-07-06T04:00:03;10.27;;;7.50;;
58878;SDS011;44660;42.664;23.266;2022-07-06T04:02:30;9.95;;;7.05;;
58878;SDS011;44660;42.664;23.266;2022-07-06T04:04:55;11.30;;;6.60;;
58878;SDS011;44660;42.664;23.266;2022-07-06T04:07:21;9.10;;;6.65;;
58878;SDS011;44660;42.664;23.266;2022-07-06T04:09:46;12.68;;;7.60;;
58878;SDS011;44660;42.664;23.266;2022-07-06T04:12:12;20.30;;;13.82;;
58878;SDS011;44660;42.664;23.266;2022-07-06T04:14:37;12.60;;;8.93;;
58878;SDS011;44660;42.664;23.266;2022-07-06T04:17:02;11.15;;;8.20;;
58878;SDS011;44660;42.664;23.266;2022-07-06T04:19:46;8.75;;;6.68;;
58878;SDS011;44660;42.664;23.266;2022-07-06T04:22:12;10.45;;;6.35;;
58878;SDS011;44660;42.664;23.266;2022-07-06T04:24:37;10.35;;;7.30;;
58878;SDS011;44660;42.664;23.266;2022-07-06T04:27:03;10.65;;;7.32;;
58878;SDS011;44660;42.664;23.266;2022-07-06T04:29:28;11.25;;;5.65;;
58878;SDS011;44660;42.664;23.266;2022-07-06T04:31:54;12.68;;;6.68;;
58878;SDS011;44660;42.664;23.266;2022-07-06T04:34:19;12.13;;;7.05;;
58878;SDS011;44660;42.664;23.266;2022-07-06T04:36:44;10.57;;;6.50;;
58878;SDS011;44660;42.664;23.266;2022-07-06T04:39:10;7.60;;;6.13;;
58878;SDS011;44660;42.664;23.266;2022-07-06T04:41:35;9.48;;;5.82;;
58878;SDS011;44660;42.664;23.266;2022-07-06T04:44:01;10.43;;;5.30;;
58878;SDS011;44660;42.664;23.266;2022-07-06T04:46:26;8.18;;;5.60;;
58878;SDS011;44660;42.664;23.266;2022-07-06T04:48:51;11.90;;;6.65;;
58878;SDS011;44660;42.664;23.266;2022-07-06T04:51:17;8.23;;;6.20;;
58878;SDS011;44660;42.664;23.266;2022-07-06T04:53:42;9.50;;;7.25;;
58878;SDS011;44660;42.664;23.266;2022-07-06T04:56:07;10.38;;;7.47;;
58878;SDS011;44660;42.664;23.266;2022-07-06T04:58:33;15.45;;;10.32;;
58878;SDS011;44660;42.664;23.266;2022-07-06T05:00:58;15.45;;;11.30;;
58878;SDS011;44660;42.664;23.266;2022-07-06T05:03:24;15.10;;;9.02;;
58878;SDS011;44660;42.664;23.266;2022-07-06T05:05:49;12.63;;;8.85;;
58878;SDS011;44660;42.664;23.266;2022-07-06T05:08:15;13.60;;;9.70;;
58878;SDS011;44660;42.664;23.266;2022-07-06T05:10:40;11.18;;;8.55;;
58878;SDS011;44660;42.664;23.266;2022-07-06T05:13:05;15.10;;;8.98;;
58878;SDS011;44660;42.664;23.266;2022-07-06T05:15:31;17.17;;;9.32;;
58878;SDS011;44660;42.664;23.266;2022-07-06T05:17:56;14.35;;;9.25;;
58878;SDS011;44660;42.664;23.266;2022-07-06T05:20:23;11.88;;;9.63;;
58878;SDS011;44660;42.664;23.266;2022-07-06T05:22:48;17.00;;;8.88;;
58878;SDS011;44660;42.664;23.266;2022-07-06T05:25:14;16.15;;;9.32;;
58878;SDS011;44660;42.664;23.266;2022-07-06T05:27:39;15.68;;;9.23;;
58878;SDS011;44660;42.664;23.266;2022-07-06T05:30:05;12.80;;;8.50;;
58878;SDS011;44660;42.664;23.266;2022-07-06T05:32:31;12.50;;;8.18;;
58878;SDS011;44660;42.664;23.266;2022-07-06T05:34:56;15.85;;;8.48;;
58878;SDS011;44660;42.664;23.266;2022-07-06T05:37:22;13.07;;;8.38;;
58878;SDS011;44660;42.664;23.266;2022-07-06T05:39:47;16.48;;;7.93;;
58878;SDS011;44660;42.664;23.266;2022-07-06T05:42:14;14.35;;;7.78;;
58878;SDS011;44660;42.664;23.266;2022-07-06T05:44:40;10.30;;;7.50;;
58878;SDS011;44660;42.664;23.266;2022-07-06T05:47:05;12.63;;;7.35;;
58878;SDS011;44660;42.664;23.266;2022-07-06T05:49:49;12.38;;;8.15;;
58878;SDS011;44660;42.664;23.266;2022-07-06T05:52:33;10.30;;;7.97;;
58878;SDS011;44660;42.664;23.266;2022-07-06T05:54:59;10.35;;;7.80;;
58878;SDS011;44660;42.664;23.266;2022-07-06T05:57:24;13.93;;;7.72;;
58878;SDS011;44660;42.664;23.266;2022-07-06T05:59:49;9.18;;;7.55;;
58878;SDS011;44660;42.664;23.266;2022-07-06T06:02:15;12.52;;;7.72;;
58878;SDS011;44660;42.664;23.266;2022-07-06T06:04:40;13.43;;;7.88;;
58878;SDS011;44660;42.664;23.266;2022-07-06T06:07:06;13.18;;;7.95;;
58878;SDS011;44660;42.664;23.266;2022-07-06T06:09:31;11.50;;;7.63;;
58878;SDS011;44660;42.664;23.266;2022-07-06T06:11:57;11.18;;;7.47;;
58878;SDS011;44660;42.664;23.266;2022-07-06T06:14:22;12.10;;;6.80;;
58878;SDS011;44660;42.664;23.266;2022-07-06T06:16:47;14.88;;;9.77;;
58878;SDS011;44660;42.664;23.266;2022-07-06T06:19:13;15.05;;;10.63;;
58878;SDS011;44660;42.664;23.266;2022-07-06T06:21:38;13.80;;;9.90;;
58878;SDS011;44660;42.664;23.266;2022-07-06T06:24:04;17.85;;;7.82;;
58878;SDS011;44660;42.664;23.266;2022-07-06T06:26:29;10.70;;;7.20;;
58878;SDS011;44660;42.664;23.266;2022-07-06T06:28:55;19.23;;;12.23;;
58878;SDS011;44660;42.664;23.266;2022-07-06T06:31:20;19.45;;;14.32;;
58878;SDS011;44660;42.664;23.266;2022-07-06T06:33:45;14.50;;;9.38;;
58878;SDS011;44660;42.664;23.266;2022-07-06T06:36:11;12.40;;;8.95;;
58878;SDS011;44660;42.664;23.266;2022-07-06T06:38:37;14.50;;;8.60;;
58878;SDS011;44660;42.664;23.266;2022-07-06T06:41:03;15.73;;;9.40;;
58878;SDS011;44660;42.664;23.266;2022-07-06T06:43:28;19.85;;;9.60;;
58878;SDS011;44660;42.664;23.266;2022-07-06T06:45:54;13.30;;;9.32;;
58878;SDS011;44660;42.664;23.266;2022-07-06T06:48:19;17.73;;;9.32;;
58878;SDS011;44660;42.664;23.266;2022-07-06T06:50:45;11.43;;;9.20;;
58878;SDS011;44660;42.664;23.266;2022-07-06T06:53:11;14.43;;;9.80;;
58878;SDS011;44660;42.664;23.266;2022-07-06T06:55:36;16.13;;;9.60;;
58878;SDS011;44660;42.664;23.266;2022-07-06T06:58:02;10.68;;;9.55;;
58878;SDS011;44660;42.664;23.266;2022-07-06T07:00:27;13.15;;;9.80;;
58878;SDS011;44660;42.664;23.266;2022-07-06T07:02:53;13.52;;;9.05;;
58878;SDS011;44660;42.664;23.266;2022-07-06T07:05:18;17.40;;;10.20;;
58878;SDS011;44660;42.664;23.266;2022-07-06T07:07:43;12.27;;;10.13;;
58878;SDS011;44660;42.664;23.266;2022-07-06T07:10:09;12.98;;;10.25;;
58878;SDS011;44660;42.664;23.266;2022-07-06T07:12:35;14.18;;;10.23;;
58878;SDS011;44660;42.664;23.266;2022-07-06T07:15:06;17.52;;;10.20;;
58878;SDS011;44660;42.664;23.266;2022-07-06T07:17:32;13.82;;;10.88;;
58878;SDS011;44660;42.664;23.266;2022-07-06T07:19:58;11.55;;;10.23;;
58878;SDS011;44660;42.664;23.266;2022-07-06T07:22:23;19.25;;;11.57;;
58878;SDS011;44660;42.664;23.266;2022-07-06T07:24:49;13.63;;;11.02;;
58878;SDS011;44660;42.664;23.266;2022-07-06T07:27:15;15.73;;;11.82;;
58878;SDS011;44660;42.664;23.266;2022-07-06T07:29:40;15.07;;;12.07;;
58878;SDS011;44660;42.664;23.266;2022-07-06T07:32:06;14.23;;;11.43;;
58878;SDS011;44660;42.664;23.266;2022-07-06T07:34:31;15.70;;;11.35;;
58878;SDS011;44660;42.664;23.266;2022-07-06T07:36:57;17.98;;;13.50;;
58878;SDS011;44660;42.664;23.266;2022-07-06T07:39:22;13.65;;;11.88;;
58878;SDS011;44660;42.664;23.266;2022-07-06T07:41:48;15.50;;;11.57;;
58878;SDS011;44660;42.664;23.266;2022-07-06T07:44:15;15.70;;;11.93;;
58878;SDS011;44660;42.664;23.266;2022-07-06T07:46:41;13.27;;;11.70;;
58878;SDS011;44660;42.664;23.266;2022-07-06T07:49:06;15.73;;;11.38;;
58878;SDS011;44660;42.664;23.266;2022-07-06T07:51:32;16.75;;;12.25;;
58878;SDS011;44660;42.664;23.266;2022-07-06T07:53:58;14.30;;;12.80;;
58878;SDS011;44660;42.664;23.266;2022-07-06T07:56:23;22.63;;;12.70;;
58878;SDS011;44660;42.664;23.266;2022-07-06T07:58:48;15.52;;;12.52;;
58878;SDS011;44660;42.664;23.266;2022-07-06T08:01:14;20.08;;;12.30;;
58878;SDS011;44660;42.664;23.266;2022-07-06T08:03:39;15.38;;;11.02;;
58878;SDS011;44660;42.664;23.266;2022-07-06T08:06:05;15.30;;;11.85;;
58878;SDS011;44660;42.664;23.266;2022-07-06T08:08:30;13.48;;;10.75;;
58878;SDS011;44660;42.664;23.266;2022-07-06T08:10:56;15.13;;;11.05;;
58878;SDS011;44660;42.664;23.266;2022-07-06T08:13:21;14.10;;;11.02;;
58878;SDS011;44660;42.664;23.266;2022-07-06T08:15:47;13.02;;;10.43;;
58878;SDS011;44660;42.664;23.266;2022-07-06T08:18:12;16.95;;;10.43;;
58878;SDS011;44660;42.664;23.266;2022-07-06T08:20:38;15.00;;;11.48;;
58878;SDS011;44660;42.664;23.266;2022-07-06T08:23:03;12.00;;;10.60;;
58878;SDS011;44660;42.664;23.266;2022-07-06T08:25:29;12.25;;;10.88;;
58878;SDS011;44660;42.664;23.266;2022-07-06T08:27:56;14.13;;;10.90;;
58878;SDS011;44660;42.664;23.266;2022-07-06T08:30:21;13.02;;;10.65;;
58878;SDS011;44660;42.664;23.266;2022-07-06T08:32:47;15.35;;;10.80;;
58878;SDS011;44660;42.664;23.266;2022-07-06T08:35:12;16.95;;;10.68;;
58878;SDS011;44660;42.664;23.266;2022-07-06T08:37:38;15.70;;;10.95;;
58878;SDS011;44660;42.664;23.266;2022-07-06T08:40:04;13.35;;;10.70;;
58878;SDS011;44660;42.664;23.266;2022-07-06T08:42:32;13.25;;;11.70;;
58878;SDS011;44660;42.664;23.266;2022-07-06T08:45:00;13.30;;;11.90;;
58878;SDS011;44660;42.664;23.266;2022-07-06T08:47:27;15.70;;;11.55;;
58878;SDS011;44660;42.664;23.266;2022-07-06T08:49:53;11.98;;;10.43;;
58878;SDS011;44660;42.664;23.266;2022-07-06T08:52:19;14.68;;;12.20;;
58878;SDS011;44660;42.664;23.266;2022-07-06T08:54:46;13.82;;;10.82;;
58878;SDS011;44660;42.664;23.266;2022-07-06T08:57:11;13.88;;;10.57;;
58878;SDS011;44660;42.664;23.266;2022-07-06T08:59:38;15.82;;;11.07;;
58878;SDS011;44660;42.664;23.266;2022-07-06T09:02:04;11.52;;;9.70;;
58878;SDS011;44660;42.664;23.266;2022-07-06T09:04:30;12.10;;;10.32;;
58878;SDS011;44660;42.664;23.266;2022-07-06T09:06:58;13.68;;;10.48;;
58878;SDS011;44660;42.664;23.266;2022-07-06T09:09:24;12.30;;;10.57;;
58878;SDS011;44660;42.664;23.266;2022-07-06T09:11:50;14.45;;;10.88;;
58878;SDS011;44660;42.664;23.266;2022-07-06T09:14:16;13.57;;;10.35;;
58878;SDS011;44660;42.664;23.266;2022-07-06T09:16:44;13.55;;;10.88;;
58878;SDS011;44660;42.664;23.266;2022-07-06T09:19:11;14.55;;;10.10;;
58878;SDS011;44660;42.664;23.266;2022-07-06T09:21:36;12.27;;;10.32;;
58878;SDS011;44660;42.664;23.266;2022-07-06T09:24:03;13.05;;;10.13;;
58878;SDS011;44660;42.664;23.266;2022-07-06T09:26:33;10.43;;;9.32;;
58878;SDS011;44660;42.664;23.266;2022-07-06T09:28:59;11.13;;;9.73;;
58878;SDS011;44660;42.664;23.266;2022-07-06T09:31:25;12.20;;;9.98;;
58878;SDS011;44660;42.664;23.266;2022-07-06T09:33:55;15.27;;;10.02;;
58878;SDS011;44660;42.664;23.266;2022-07-06T09:39:20;11.43;;;10.20;;
58878;SDS011;44660;42.664;23.266;2022-07-06T09:41:51;17.13;;;9.93;;
58878;SDS011;44660;42.664;23.266;2022-07-06T09:44:22;16.58;;;11.15;;
58878;SDS011;44660;42.664;23.266;2022-07-06T09:46:49;14.98;;;12.00;;
58878;SDS011;44660;42.664;23.266;2022-07-06T09:49:16;16.65;;;11.77;;
58878;SDS011;44660;42.664;23.266;2022-07-06T09:51:44;15.18;;;11.60;;
58878;SDS011;44660;42.664;23.266;2022-07-06T09:54:11;15.55;;;11.70;;
58878;SDS011;44660;42.664;23.266;2022-07-06T09:56:38;14.15;;;11.65;;
58878;SDS011;44660;42.664;23.266;2022-07-06T09:59:08;14.07;;;11.73;;
58878;SDS011;44660;42.664;23.266;2022-07-06T10:01:37;15.32;;;12.77;;
58878;SDS011;44660;42.664;23.266;2022-07-06T10:04:04;13.57;;;12.15;;
58878;SDS011;44660;42.664;23.266;2022-07-06T10:06:31;19.25;;;12.52;;
58878;SDS011;44660;42.664;23.266;2022-07-06T10:08:57;18.00;;;12.23;;
58878;SDS011;44660;42.664;23.266;2022-07-06T10:11:24;15.38;;;12.00;;
58878;SDS011;44660;42.664;23.266;2022-07-06T10:13:50;13.88;;;11.10;;
58878;SDS011;44660;42.664;23.266;2022-07-06T10:16:21;12.98;;;11.68;;
58878;SDS011;44660;42.664;23.266;2022-07-06T10:18:47;16.08;;;11.48;;
58878;SDS011;44660;42.664;23.266;2022-07-06T10:21:16;12.75;;;11.13;;
58878;SDS011;44660;42.664;23.266;2022-07-06T10:23:42;13.80;;;10.75;;
58878;SDS011;44660;42.664;23.266;2022-07-06T10:26:08;13.10;;;11.45;;
58878;SDS011;44660;42.664;23.266;2022-07-06T10:28:34;15.30;;;12.57;;
58878;SDS011;44660;42.664;23.266;2022-07-06T10:31:00;13.48;;;11.35;;
58878;SDS011;44660;42.664;23.266;2022-07-06T10:33:27;14.88;;;11.90;;
58878;SDS011;44660;42.664;23.266;2022-07-06T10:35:52;13.15;;;11.77;;
58878;SDS011;44660;42.664;23.266;2022-07-06T10:38:20;13.23;;;11.63;;
58878;SDS011;44660;42.664;23.266;2022-07-06T10:41:03;15.57;;;11.15;;
58878;SDS011;44660;42.664;23.266;2022-07-06T10:43:38;14.83;;;11.57;;
58878;SDS011;44660;42.664;23.266;2022-07-06T10:46:16;14.82;;;11.65;;
58878;SDS011;44660;42.664;23.266;2022-07-06T10:48:44;13.25;;;11.05;;
58878;SDS011;44660;42.664;23.266;2022-07-06T10:51:12;11.88;;;10.57;;
58878;SDS011;44660;42.664;23.266;2022-07-06T10:54:08;13.73;;;11.20;;
58878;SDS011;44660;42.664;23.266;2022-07-06T10:56:38;17.52;;;11.50;;
58878;SDS011;44660;42.664;23.266;2022-07-06T10:59:16;13.98;;;11.10;;
58878;SDS011;44660;42.664;23.266;2022-07-06T11:04:36;14.02;;;11.30;;
58878;SDS011;44660;42.664;23.266;2022-07-06T11:07:12;12.60;;;11.30;;
58878;SDS011;44660;42.664;23.266;2022-07-06T11:09:40;13.07;;;11.25;;
58878;SDS011;44660;42.664;23.266;2022-07-06T11:12:19;12.57;;;11.38;;
58878;SDS011;44660;42.664;23.266;2022-07-06T11:14:45;13.13;;;11.77;;
58878;SDS011;44660;42.664;23.266;2022-07-06T11:17:12;13.82;;;12.32;;
58878;SDS011;44660;42.664;23.266;2022-07-06T11:19:38;12.77;;;11.48;;
58878;SDS011;44660;42.664;23.266;2022-07-06T11:22:12;13.90;;;12.10;;
58878;SDS011;44660;42.664;23.266;2022-07-06T11:24:41;13.73;;;12.32;;
58878;SDS011;44660;42.664;23.266;2022-07-06T11:27:07;13.25;;;11.85;;
58878;SDS011;44660;42.664;23.266;2022-07-06T11:29:34;15.75;;;12.15;;
58878;SDS011;44660;42.664;23.266;2022-07-06T11:32:01;13.13;;;11.77;;
58878;SDS011;44660;42.664;23.266;2022-07-06T11:34:36;13.48;;;12.07;;
58878;SDS011;44660;42.664;23.266;2022-07-06T11:37:07;12.77;;;11.45;;
58878;SDS011;44660;42.664;23.266;2022-07-06T11:39:38;12.50;;;11.40;;
58878;SDS011;44660;42.664;23.266;2022-07-06T11:42:05;13.93;;;12.15;;
58878;SDS011;44660;42.664;23.266;2022-07-06T11:44:31;12.07;;;10.90;;
58878;SDS011;44660;42.664;23.266;2022-07-06T11:47:01;12.23;;;11.00;;
58878;SDS011;44660;42.664;23.266;2022-07-06T11:49:29;13.73;;;11.48;;
58878;SDS011;44660;42.664;23.266;2022-07-06T11:51:55;12.75;;;11.45;;
58878;SDS011;44660;42.664;23.266;2022-07-06T11:54:21;16.42;;;12.80;;
58878;SDS011;44660;42.664;23.266;2022-07-06T11:56:55;12.40;;;10.93;;
58878;SDS011;44660;42.664;23.266;2022-07-06T11:59:31;14.02;;;11.60;;
58878;SDS011;44660;42.664;23.266;2022-07-06T12:02:07;12.55;;;11.25;;
58878;SDS011;44660;42.664;23.266;2022-07-06T12:04:38;12.52;;;11.32;;
58878;SDS011;44660;42.664;23.266;2022-07-06T12:07:12;14.32;;;12.27;;
58878;SDS011;44660;42.664;23.266;2022-07-06T12:09:40;13.63;;;12.35;;
58878;SDS011;44660;42.664;23.266;2022-07-06T12:12:07;13.45;;;12.00;;
58878;SDS011;44660;42.664;23.266;2022-07-06T12:14:35;12.75;;;11.65;;
58878;SDS011;44660;42.664;23.266;2022-07-06T12:19:32;14.35;;;11.10;;
58878;SDS011;44660;42.664;23.266;2022-07-06T12:21:58;12.35;;;11.13;;
58878;SDS011;44660;42.664;23.266;2022-07-06T12:24:26;11.73;;;9.75;;
58878;SDS011;44660;42.664;23.266;2022-07-06T12:26:55;10.73;;;9.63;;
58878;SDS011;44660;42.664;23.266;2022-07-06T12:29:21;10.15;;;9.18;;
58878;SDS011;44660;42.664;23.266;2022-07-06T12:34:24;8.90;;;8.10;;
58878;SDS011;44660;42.664;23.266;2022-07-06T12:36:52;8.85;;;8.05;;
58878;SDS011;44660;42.664;23.266;2022-07-06T12:39:20;9.10;;;8.13;;
58878;SDS011;44660;42.664;23.266;2022-07-06T12:41:48;9.17;;;8.03;;
58878;SDS011;44660;42.664;23.266;2022-07-06T12:44:16;9.77;;;7.72;;
58878;SDS011;44660;42.664;23.266;2022-07-06T12:46:43;7.67;;;6.97;;
58878;SDS011;44660;42.664;23.266;2022-07-06T12:49:19;7.38;;;6.68;;
58878;SDS011;44660;42.664;23.266;2022-07-06T12:51:50;7.88;;;7.10;;
58878;SDS011;44660;42.664;23.266;2022-07-06T12:54:35;7.70;;;7.00;;
58878;SDS011;44660;42.664;23.266;2022-07-06T13:02:19;10.13;;;7.35;;
58878;SDS011;44660;42.664;23.266;2022-07-06T13:07:33;12.05;;;7.32;;
58878;SDS011;44660;42.664;23.266;2022-07-06T13:10:04;8.15;;;5.93;;
58878;SDS011;44660;42.664;23.266;2022-07-06T13:12:30;6.03;;;5.43;;
58878;SDS011;44660;42.664;23.266;2022-07-06T13:14:55;9.32;;;4.97;;
58878;SDS011;44660;42.664;23.266;2022-07-06T13:17:21;5.95;;;4.97;;
58878;SDS011;44660;42.664;23.266;2022-07-06T13:19:47;6.15;;;4.40;;
58878;SDS011;44660;42.664;23.266;2022-07-06T13:22:12;8.10;;;4.93;;
58878;SDS011;44660;42.664;23.266;2022-07-06T13:24:38;5.28;;;4.70;;
58878;SDS011;44660;42.664;23.266;2022-07-06T13:27:04;4.72;;;4.22;;
58878;SDS011;44660;42.664;23.266;2022-07-06T13:29:30;4.63;;;4.22;;
58878;SDS011;44660;42.664;23.266;2022-07-06T13:31:56;5.97;;;4.28;;
58878;SDS011;44660;42.664;23.266;2022-07-06T13:34:22;4.15;;;3.72;;
58878;SDS011;44660;42.664;23.266;2022-07-06T13:36:48;6.50;;;3.83;;
58878;SDS011;44660;42.664;23.266;2022-07-06T13:39:14;8.50;;;4.10;;
58878;SDS011;44660;42.664;23.266;2022-07-06T13:41:39;3.65;;;3.35;;
58878;SDS011;44660;42.664;23.266;2022-07-06T13:44:05;3.17;;;2.80;;
58878;SDS011;44660;42.664;23.266;2022-07-06T13:46:32;4.15;;;3.10;;
58878;SDS011;44660;42.664;23.266;2022-07-06T13:48:58;2.80;;;2.60;;
58878;SDS011;44660;42.664;23.266;2022-07-06T13:51:24;3.05;;;2.65;;
58878;SDS011;44660;42.664;23.266;2022-07-06T13:53:50;2.70;;;2.50;;
58878;SDS011;44660;42.664;23.266;2022-07-06T13:56:16;5.63;;;2.45;;
58878;SDS011;44660;42.664;23.266;2022-07-06T13:58:41;2.67;;;2.20;;
58878;SDS011;44660;42.664;23.266;2022-07-06T14:01:07;2.70;;;2.28;;
58878;SDS011;44660;42.664;23.266;2022-07-06T14:03:33;3.70;;;2.50;;
58878;SDS011;44660;42.664;23.266;2022-07-06T14:06:00;4.90;;;2.58;;
58878;SDS011;44660;42.664;23.266;2022-07-06T14:08:27;2.95;;;2.05;;
58878;SDS011;44660;42.664;23.266;2022-07-06T14:10:53;2.67;;;2.03;;
58878;SDS011;44660;42.664;23.266;2022-07-06T14:13:20;4.53;;;2.00;;
58878;SDS011;44660;42.664;23.266;2022-07-06T14:15:46;3.90;;;2.05;;
58878;SDS011;44660;42.664;23.266;2022-07-06T14:18:13;3.25;;;2.40;;
58878;SDS011;44660;42.664;23.266;2022-07-06T14:20:39;4.43;;;2.55;;
58878;SDS011;44660;42.664;23.266;2022-07-06T14:23:05;3.58;;;2.25;;
58878;SDS011;44660;42.664;23.266;2022-07-06T14:25:31;2.28;;;2.13;;
58878;SDS011;44660;42.664;23.266;2022-07-06T14:27:57;2.53;;;2.28;;
58878;SDS011;44660;42.664;23.266;2022-07-06T14:30:22;4.25;;;2.45;;
58878;SDS011;44660;42.664;23.266;2022-07-06T14:32:48;2.65;;;2.10;;
58878;SDS011;44660;42.664;23.266;2022-07-06T14:35:14;4.70;;;2.35;;
58878;SDS011;44660;42.664;23.266;2022-07-06T14:37:39;2.58;;;2.30;;